Time;durP1;ratioP1;P1;durP2;ratioP2;P2;SDS_P1;SDS_P2;PMS_P1;PMS_P2;Temp;Humidity;BMP_temperature;BMP_pressure;BME280_temperature;BME280_humidity;BME280_pressure;Samples;Min_cycle;Max_cycle;Signal;HPM_P1;HPM_P2
2024/04/16 00:02:10;;;;;;;79.47;73.47;;;;;;;5.53;79.19;98545.37;1830052;77;25615;-59
2024/04/16 00:04:36;;;;;;;41.68;37.80;;;;;;;5.51;79.14;98544.35;1829981;78;25519;-59
2024/04/16 00:07:05;;;;;;;17.42;9.70;;;;;;;5.56;79.46;98546.88;1830098;78;25432;-59
2024/04/16 00:09:32;;;;;;;22.37;10.85;;;;;;;5.56;79.25;98550.11;1830175;78;32658;-58
2024/04/16 00:12:07;;;;;;;19.30;10.40;;;;;;;5.54;79.94;98546.97;1829997;78;26002;-60
2024/04/16 00:14:33;;;;;;;20.37;10.82;;;;;;;5.53;79.99;98546.16;1830111;78;25438;-58
2024/04/16 00:16:59;;;;;;;21.93;10.10;;;;;;;5.52;80.65;98541.92;1830036;78;25521;-59
2024/04/16 00:19:25;;;;;;;26.05;10.72;;;;;;;5.54;80.75;98538.36;1830051;78;25465;-57
2024/04/16 00:21:51;;;;;;;17.52;10.68;;;;;;;5.55;80.76;98531.91;1830075;78;27401;-59
2024/04/16 00:24:21;;;;;;;20.50;11.30;;;;;;;5.55;81.17;98529.22;1830098;78;34703;-62
2024/04/16 00:26:51;;;;;;;21.70;11.70;;;;;;;5.58;81.54;98517.86;1830017;78;25494;-59
2024/04/16 00:29:17;;;;;;;19.95;11.03;;;;;;;5.61;81.32;98510.49;1830000;78;27619;-59
2024/04/16 00:31:46;;;;;;;19.05;11.57;;;;;;;5.63;81.80;98506.16;1830199;77;25537;-59
2024/04/16 00:34:12;;;;;;;23.80;11.25;;;;;;;5.64;81.33;98490.30;1830036;78;28043;-59
2024/04/16 00:36:38;;;;;;;25.12;11.55;;;;;;;5.66;81.06;98464.50;1829977;77;25414;-58
2024/04/16 00:39:05;;;;;;;27.32;11.80;;;;;;;5.67;81.34;98439.23;1830032;78;25373;-59
2024/04/16 00:41:32;;;;;;;20.90;12.25;;;;;;;5.68;81.50;98437.58;1835719;77;25551;-60
2024/04/16 00:43:59;;;;;;;22.02;12.53;;;;;;;5.67;82.06;98436.02;1847690;77;25603;-57
2024/04/16 00:46:25;;;;;;;24.47;11.73;;;;;;;5.69;82.04;98435.70;1847684;77;27497;-59
2024/04/16 00:48:53;;;;;;;22.52;11.57;;;;;;;5.70;82.22;98441.28;1847585;77;27280;-59
2024/04/16 00:51:23;;;;;;;24.50;11.97;;;;;;;5.73;82.13;98454.84;1847713;77;25579;-59
2024/04/16 00:53:51;;;;;;;20.50;11.40;;;;;;;5.73;82.50;98454.06;1847557;77;25453;-58
2024/04/16 00:56:21;;;;;;;22.37;11.73;;;;;;;5.74;82.57;98462.35;1847867;77;25562;-59
2024/04/16 00:58:51;;;;;;;23.70;11.20;;;;;;;5.76;82.77;98474.32;1847707;77;27571;-60
2024/04/16 01:01:17;;;;;;;19.45;11.00;;;;;;;5.79;82.62;98484.98;1847619;77;25521;-58
2024/04/16 01:03:43;;;;;;;22.90;11.80;;;;;;;5.82;83.17;98472.80;1847703;77;25238;-58
2024/04/16 01:06:14;;;;;;;28.02;12.82;;;;;;;5.88;83.63;98476.89;1847714;77;25610;-58
2024/04/16 01:08:40;;;;;;;28.32;12.70;;;;;;;5.91;83.75;98486.43;1847667;77;25517;-55
2024/04/16 01:11:07;;;;;;;27.58;13.08;;;;;;;5.95;84.01;98491.37;1847623;77;27426;-59
2024/04/16 01:13:33;;;;;;;23.77;12.13;;;;;;;6.01;84.85;98475.93;1847549;77;25589;-57
2024/04/16 01:15:59;;;;;;;26.90;12.80;;;;;;;6.08;84.25;98456.61;1847763;77;25354;-58
2024/04/16 01:18:25;;;;;;;29.32;13.43;;;;;;;6.13;84.33;98437.09;1847736;77;25543;-59
2024/04/16 01:20:53;;;;;;;25.30;12.82;;;;;;;6.20;84.75;98431.22;1847832;77;25374;-58
2024/04/16 01:23:19;;;;;;;27.52;12.88;;;;;;;6.24;84.69;98419.27;1847813;77;29582;-58
2024/04/16 01:25:45;;;;;;;25.95;14.20;;;;;;;6.27;84.49;98423.43;1847707;77;25532;-59
2024/04/16 01:28:11;;;;;;;26.85;13.68;;;;;;;6.29;85.07;98429.26;1847760;77;25543;-61
2024/04/16 01:30:38;;;;;;;26.85;14.00;;;;;;;6.30;86.42;98428.69;1847819;77;25491;-62
2024/04/16 01:33:08;;;;;;;33.02;14.78;;;;;;;6.28;86.91;98433.61;1847778;77;25422;-61
2024/04/16 01:35:35;;;;;;;24.75;14.47;;;;;;;6.26;86.11;98439.30;1847870;77;27560;-59
2024/04/16 01:38:01;;;;;;;27.98;14.83;;;;;;;6.29;86.28;98458.02;1847727;77;25940;-60
2024/04/16 01:40:29;;;;;;;25.48;14.15;;;;;;;6.32;86.97;98458.15;1847880;77;25535;-60
2024/04/16 01:42:55;;;;;;;34.43;15.88;;;;;;;6.35;87.19;98456.16;1847570;77;25828;-60
2024/04/16 01:45:23;;;;;;;33.70;15.45;;;;;;;6.40;87.79;98459.76;1847820;77;25535;-60
2024/04/16 01:47:49;;;;;;;28.52;14.63;;;;;;;6.42;87.87;98473.64;1847822;77;28105;-61
2024/04/16 01:50:15;;;;;;;25.45;14.83;;;;;;;6.45;88.12;98473.00;1847648;77;25363;-61
2024/04/16 01:52:42;;;;;;;31.12;15.48;;;;;;;6.47;88.44;98473.45;1847840;77;25645;-60
2024/04/16 01:55:08;;;;;;;31.50;15.30;;;;;;;6.49;88.54;98500.23;1847882;77;25802;-59
2024/04/16 01:57:35;;;;;;;25.97;15.18;;;;;;;6.51;89.18;98496.66;1847932;77;25565;-61
2024/04/16 02:00:10;;;;;;;29.82;15.85;;;;;;;6.51;89.20;98494.53;1847810;77;27518;-61
2024/04/16 02:02:38;;;;;;;29.48;14.95;;;;;;;6.53;89.51;98478.31;1847748;77;25776;-60
2024/04/16 02:05:08;;;;;;;28.83;14.63;;;;;;;6.54;89.41;98454.94;1847787;77;25518;-60
2024/04/16 02:07:35;;;;;;;23.83;14.73;;;;;;;6.56;89.49;98441.19;1847759;77;26258;-60
2024/04/16 02:10:01;;;;;;;27.95;16.15;;;;;;;6.56;89.87;98444.65;1847838;77;25568;-60
2024/04/16 02:12:27;;;;;;;24.67;14.20;;;;;;;6.56;90.01;98433.13;1847751;77;27865;-60
2024/04/16 02:14:53;;;;;;;26.45;15.50;;;;;;;6.56;90.03;98433.13;1847588;77;25493;-60
2024/04/16 02:17:21;;;;;;;25.57;14.75;;;;;;;6.56;90.15;98425.07;1847887;77;25373;-61
2024/04/16 02:19:53;;;;;;;24.92;13.00;;;;;;;6.57;90.39;98425.28;1847809;77;25592;-60
2024/04/16 02:22:19;;;;;;;24.32;14.43;;;;;;;6.56;90.33;98407.05;1847928;77;25580;-61
2024/04/16 02:24:45;;;;;;;27.02;13.53;;;;;;;6.58;90.51;98404.81;1847802;77;27579;-61
2024/04/16 02:27:13;;;;;;;21.70;13.32;;;;;;;6.61;90.60;98397.44;1847701;77;25528;-61
2024/04/16 02:29:39;;;;;;;19.92;12.68;;;;;;;6.63;90.63;98387.14;1847820;77;25377;-61
2024/04/16 02:32:10;;;;;;;23.55;13.28;;;;;;;6.66;90.63;98368.25;1847618;77;25586;-61
2024/04/16 02:34:36;;;;;;;15.40;11.48;;;;;;;6.67;90.45;98371.93;1847837;77;25508;-61
2024/04/16 02:37:05;;;;;;;21.48;12.28;;;;;;;6.69;90.47;98362.20;1847780;77;28065;-61
2024/04/16 02:39:31;;;;;;;16.45;10.03;;;;;;;6.66;90.10;98351.57;1847655;77;25588;-60
2024/04/16 02:41:59;;;;;;;15.55;10.50;;;;;;;6.64;90.21;98330.97;1844100;77;25353;-61
2024/04/16 02:44:25;;;;;;;20.97;10.48;;;;;;;6.63;90.19;98324.58;1830080;78;25511;-61
2024/04/16 02:46:52;;;;;;;14.87;9.68;;;;;;;6.58;90.51;98297.92;1830214;78;25544;-60
2024/04/16 02:49:18;;;;;;;17.57;10.90;;;;;;;6.52;90.36;98291.95;1830189;77;27448;-60
2024/04/16 02:51:44;;;;;;;23.42;11.50;;;;;;;6.47;90.29;98288.94;1829962;78;27431;-60
2024/04/16 02:54:10;;;;;;;15.68;10.93;;;;;;;6.42;90.28;98284.31;1830076;77;25528;-60
2024/04/16 02:56:36;;;;;;;20.55;12.13;;;;;;;6.39;90.36;98294.39;1830067;77;26408;-61
2024/04/16 02:59:02;;;;;;;17.40;12.25;;;;;;;6.33;90.58;98303.98;1830075;78;25436;-61
2024/04/16 03:01:28;;;;;;;17.67;12.30;;;;;;;6.29;90.57;98307.09;1829981;78;27538;-61
2024/04/16 03:03:58;;;;;;;20.80;14.15;;;;;;;6.26;90.73;98305.62;1829925;78;25527;-61
2024/04/16 03:06:25;;;;;;;17.48;12.10;;;;;;;6.21;91.33;98305.81;1830058;78;25505;-61
2024/04/16 03:08:53;;;;;;;19.60;13.48;;;;;;;6.17;91.24;98298.98;1830071;78;25551;-61
2024/04/16 03:11:19;;;;;;;20.65;12.15;;;;;;;6.14;91.29;98306.34;1830130;77;25444;-61
2024/04/16 03:13:49;;;;;;;18.98;13.03;;;;;;;6.11;91.52;98307.80;1829923;77;28107;-62
2024/04/16 03:16:15;;;;;;;21.80;13.75;;;;;;;6.11;91.89;98311.02;1830004;77;25578;-62
2024/04/16 03:18:45;;;;;;;20.27;13.93;;;;;;;6.09;92.13;98313.25;1830193;78;25401;-61
2024/04/16 03:21:11;;;;;;;23.75;14.78;;;;;;;6.07;92.51;98310.11;1830050;77;26020;-61
2024/04/16 03:23:37;;;;;;;24.80;14.15;;;;;;;6.06;92.57;98307.99;1830068;78;25402;-61
2024/04/16 03:26:05;;;;;;;20.48;14.73;;;;;;;6.07;92.62;98303.41;1830051;78;28041;-61
2024/04/16 03:28:33;;;;;;;23.55;14.38;;;;;;;6.07;93.18;98300.16;1829897;77;25494;-61
2024/04/16 03:31:04;;;;;;;23.83;14.95;;;;;;;6.07;93.30;98299.38;1830029;78;25422;-61
2024/04/16 03:33:32;;;;;;;20.75;14.47;;;;;;;6.05;94.24;98294.33;1830043;78;25549;-61
2024/04/16 03:36:00;;;;;;;21.93;14.25;;;;;;;6.06;94.07;98298.59;1830044;78;25420;-59
2024/04/16 03:38:27;;;;;;;22.90;13.88;;;;;;;6.05;94.90;98292.98;1830088;78;28114;-58
2024/04/16 03:41:02;;;;;;;22.50;13.22;;;;;;;6.06;94.64;98293.77;1829955;78;25574;-59
2024/04/16 03:43:32;;;;;;;24.10;13.62;;;;;;;6.08;95.10;98287.51;1821498;77;25390;-61
2024/04/16 03:46:04;;;;;;;20.37;13.55;;;;;;;6.12;95.58;98277.14;1818143;78;26325;-60
2024/04/16 03:48:32;;;;;;;19.52;13.55;;;;;;;6.14;95.59;98278.16;1818281;78;25528;-61
2024/04/16 03:51:03;;;;;;;22.10;13.08;;;;;;;6.16;95.70;98272.70;1818190;78;28103;-60
2024/04/16 03:53:29;;;;;;;19.57;12.33;;;;;;;6.20;96.43;98270.67;1818145;78;25676;-60
2024/04/16 03:56:00;;;;;;;20.10;12.07;;;;;;;6.22;96.56;98271.94;1818181;78;25608;-60
2024/04/16 03:58:34;;;;;;;22.65;12.15;;;;;;;6.26;96.54;98278.20;1818205;78;26662;-61
2024/04/16 04:01:03;;;;;;;18.98;11.73;;;;;;;6.31;97.72;98282.03;1818200;78;25603;-61
2024/04/16 04:03:38;;;;;;;16.48;11.68;;;;;;;6.35;98.60;98277.59;1818187;78;27512;-60
2024/04/16 04:06:07;;;;;;;16.65;10.78;;;;;;;6.40;98.53;98278.48;1818098;78;25441;-60
2024/04/16 04:08:33;;;;;;;17.48;10.82;;;;;;;6.44;98.44;98290.16;1818308;78;25517;-60
2024/04/16 04:11:00;;;;;;;16.20;10.63;;;;;;;6.49;99.68;98292.64;1818146;78;26035;-60
2024/04/16 04:13:27;;;;;;;14.55;10.98;;;;;;;6.52;99.46;98298.13;1818173;78;25518;-61
2024/04/16 04:15:56;;;;;;;21.60;11.35;;;;;;;6.57;99.33;98306.52;1818170;78;27560;-61
2024/04/16 04:18:21;;;;;;;20.43;11.90;;;;;;;6.61;99.68;98292.67;1817219;78;25918;-60
2024/04/16 04:20:47;;;;;;;18.23;11.50;;;;;;;6.65;100.00;98306.22;1818154;78;25537;-61
2024/04/16 04:23:15;;;;;;;18.62;10.95;;;;;;;6.66;99.90;98315.30;1818073;78;27695;-61
2024/04/16 04:25:45;;;;;;;16.90;11.00;;;;;;;6.71;100.00;98320.47;1818153;78;25568;-61
2024/04/16 04:28:11;;;;;;;17.07;11.85;;;;;;;6.75;100.00;98325.19;1818204;78;27595;-62
2024/04/16 04:30:39;;;;;;;17.55;12.98;;;;;;;6.78;100.00;98325.88;1818135;78;25461;-62
2024/04/16 04:33:06;;;;;;;18.55;12.93;;;;;;;6.83;100.00;98332.37;1818136;78;25434;-60
2024/04/16 04:35:33;;;;;;;19.37;12.65;;;;;;;6.87;100.00;98354.20;1818131;78;26063;-61
2024/04/16 04:38:02;;;;;;;18.52;12.53;;;;;;;6.91;100.00;98351.64;1818202;78;25523;-61
2024/04/16 04:40:34;;;;;;;20.65;13.43;;;;;;;6.92;100.00;98347.28;1818321;78;27503;-62
2024/04/16 04:43:00;;;;;;;18.73;12.60;;;;;;;6.98;100.00;98348.41;1822339;77;25446;-60
2024/04/16 04:45:28;;;;;;;21.07;12.70;;;;;;;7.02;100.00;98341.27;1830108;77;25594;-61
2024/04/16 04:47:54;;;;;;;17.20;13.68;;;;;;;7.04;100.00;98334.43;1830096;78;25543;-61
2024/04/16 04:50:20;;;;;;;18.30;13.75;;;;;;;7.09;100.00;98354.37;1830141;78;25370;-62
2024/04/16 04:52:46;;;;;;;20.20;12.90;;;;;;;7.16;100.00;98369.19;1830137;77;27375;-62
2024/04/16 04:55:13;;;;;;;19.05;13.50;;;;;;;7.18;100.00;98367.73;1830193;77;25603;-63
2024/04/16 04:57:41;;;;;;;17.37;13.15;;;;;;;7.22;100.00;98372.68;1830189;78;25618;-62
2024/04/16 05:00:11;;;;;;;19.65;12.90;;;;;;;7.28;100.00;98370.55;1829760;78;25574;-63
2024/04/16 05:02:38;;;;;;;19.12;13.80;;;;;;;7.30;100.00;98373.69;1830295;78;25537;-62
2024/04/16 05:05:07;;;;;;;19.85;13.40;;;;;;;7.35;100.00;98376.73;1830147;78;27563;-62
2024/04/16 05:07:33;;;;;;;19.65;14.55;;;;;;;7.40;100.00;98371.91;1830317;78;25790;-61
2024/04/16 05:09:59;;;;;;;19.62;13.70;;;;;;;7.44;100.00;98376.87;1830218;78;25437;-61
2024/04/16 05:12:25;;;;;;;21.97;12.98;;;;;;;7.46;100.00;98372.50;1830136;77;25477;-62
2024/04/16 05:14:51;;;;;;;16.15;11.97;;;;;;;7.49;100.00;98374.50;1829057;77;25765;-61
2024/04/16 05:17:17;;;;;;;16.70;11.40;;;;;;;7.52;100.00;98391.89;1829415;77;27556;-62
2024/04/16 05:19:43;;;;;;;15.50;11.15;;;;;;;7.53;100.00;98400.97;1829565;78;25755;-62
2024/04/16 05:22:09;;;;;;;20.72;18.35;;;;;;;7.54;100.00;98407.91;1829638;78;25635;-61
2024/04/16 05:24:35;;;;;;;16.17;11.20;;;;;;;7.57;100.00;98409.94;1829517;78;27743;-62
2024/04/16 05:27:03;;;;;;;14.15;9.23;;;;;;;7.60;99.73;98424.06;1829665;78;25536;-61
2024/04/16 05:29:29;;;;;;;13.15;9.35;;;;;;;7.60;99.49;98424.06;1829675;78;27504;-62
2024/04/16 05:31:55;;;;;;;8.20;6.97;;;;;;;7.60;99.31;98452.89;1829992;78;25573;-61
2024/04/16 05:34:21;;;;;;;6.58;4.62;;;;;;;7.58;98.66;98478.78;1830121;78;25378;-62
2024/04/16 05:36:48;;;;;;;3.55;3.00;;;;;;;7.50;95.13;98440.64;1830112;78;25847;-62
2024/04/16 05:39:14;;;;;;;2.45;1.92;;;;;;;7.40;93.34;98464.71;1830125;77;25415;-63
2024/04/16 05:41:42;;;;;;;2.02;1.80;;;;;;;7.32;92.52;98461.58;1830241;78;28108;-62
2024/04/16 05:44:08;;;;;;;2.17;1.62;;;;;;;7.21;91.50;98484.04;1829901;77;25870;-63
2024/04/16 05:46:34;;;;;;;1.95;1.50;;;;;;;7.09;89.82;98491.49;1830124;78;25387;-63
2024/04/16 05:49:01;;;;;;;1.87;1.40;;;;;;;7.01;89.39;98495.60;1830152;78;27743;-60
2024/04/16 05:51:27;;;;;;;2.80;1.60;;;;;;;6.94;88.38;98509.56;1830315;78;25521;-61
2024/04/16 05:53:53;;;;;;;1.60;1.50;;;;;;;6.88;88.88;98535.08;1830281;77;27444;-62
2024/04/16 05:56:19;;;;;;;3.85;1.60;;;;;;;6.83;88.57;98542.00;1830234;77;25707;-62
2024/04/16 05:58:47;;;;;;;3.62;1.50;;;;;;;6.77;88.20;98518.53;1830162;78;25956;-62
2024/04/16 06:01:15;;;;;;;2.05;1.47;;;;;;;6.74;87.43;98533.97;1830140;78;25540;-62
2024/04/16 06:03:41;;;;;;;3.67;1.50;;;;;;;6.70;87.52;98525.77;1830171;78;25378;-62
2024/04/16 06:06:09;;;;;;;1.50;1.40;;;;;;;6.68;87.00;98537.97;1830230;78;28030;-63
2024/04/16 06:08:38;;;;;;;2.12;1.37;;;;;;;6.70;87.14;98553.20;1830038;78;25430;-62
2024/04/16 06:11:05;;;;;;;1.52;1.20;;;;;;;6.73;86.65;98531.84;1830320;78;25291;-61
2024/04/16 06:13:31;;;;;;;2.33;1.10;;;;;;;6.94;87.18;98523.57;1830113;78;25539;-62
2024/04/16 06:15:59;;;;;;;1.67;1.40;;;;;;;7.04;85.19;98533.94;1830114;78;25370;-62
2024/04/16 06:18:27;;;;;;;3.75;1.90;;;;;;;7.14;85.43;98514.72;1830225;78;27404;-62
2024/04/16 06:20:55;;;;;;;1.20;1.10;;;;;;;7.23;83.63;98513.29;1830037;78;25568;-62
2024/04/16 06:23:22;;;;;;;2.67;1.27;;;;;;;7.29;83.55;98516.80;1830133;77;25379;-62
2024/04/16 06:25:50;;;;;;;2.12;1.20;;;;;;;7.40;83.14;98533.87;1830220;78;25500;-62
2024/04/16 06:28:16;;;;;;;1.87;1.40;;;;;;;7.52;83.76;98535.25;1830108;78;25347;-62
2024/04/16 06:30:44;;;;;;;2.65;1.20;;;;;;;7.67;84.08;98533.28;1830161;77;27446;-63
2024/04/16 06:33:12;;;;;;;2.20;1.50;;;;;;;7.73;80.62;98527.69;1830022;78;25586;-62
2024/04/16 06:35:38;;;;;;;1.75;1.12;;;;;;;7.78;80.07;98532.32;1830146;78;25462;-62
2024/04/16 06:38:04;;;;;;;1.35;1.10;;;;;;;7.84;79.73;98527.50;1830143;78;25535;-63
2024/04/16 06:40:31;;;;;;;1.30;1.20;;;;;;;7.90;76.93;98536.14;1830191;77;25382;-62
2024/04/16 06:42:57;;;;;;;23.65;17.42;;;;;;;7.95;77.91;98527.31;1828930;77;27512;-59
2024/04/16 06:45:23;;;;;;;13.43;10.00;;;;;;;8.02;77.78;98534.27;1818240;78;25191;-60
2024/04/16 06:47:49;;;;;;;5.40;4.78;;;;;;;8.10;78.10;98533.92;1818296;78;25555;-62
2024/04/16 06:50:16;;;;;;;1.62;1.20;;;;;;;8.15;77.15;98543.70;1818176;78;25524;-62
2024/04/16 06:52:42;;;;;;;2.55;1.50;;;;;;;8.19;77.11;98548.09;1818398;78;25510;-62
2024/04/16 06:55:08;;;;;;;1.82;1.42;;;;;;;8.13;75.96;98543.25;1818288;78;27389;-63
2024/04/16 06:57:34;;;;;;;2.77;1.40;;;;;;;8.08;75.38;98542.91;1818300;78;25374;-62
2024/04/16 07:00:01;;;;;;;2.85;1.42;;;;;;;8.02;75.36;98538.88;1818255;78;25390;-63
2024/04/16 07:02:29;;;;;;;74.77;70.10;;;;;;;8.00;76.23;98538.40;1818209;78;26483;-62
2024/04/16 07:04:58;;;;;;;19.15;17.73;;;;;;;7.94;75.88;98535.72;1818439;78;25402;-62
2024/04/16 07:07:24;;;;;;;2.02;1.50;;;;;;;7.97;75.78;98529.09;1818436;78;27556;-62
2024/04/16 07:09:50;;;;;;;1.82;1.62;;;;;;;7.95;74.35;98542.12;1818149;78;25603;-62
2024/04/16 07:12:16;;;;;;;3.25;1.70;;;;;;;7.88;75.12;98554.53;1818266;78;25157;-63
2024/04/16 07:14:43;;;;;;;2.65;2.08;;;;;;;7.82;75.49;98556.09;1818267;78;25628;-62
2024/04/16 07:17:09;;;;;;;2.10;2.00;;;;;;;7.82;76.04;98556.66;1818359;78;25510;-62
2024/04/16 07:19:35;;;;;;;11.53;2.40;;;;;;;7.87;76.22;98572.60;1818367;78;27464;-61
2024/04/16 07:22:01;;;;;;;4.15;1.92;;;;;;;7.90;76.19;98575.98;1818164;78;25471;-62
2024/04/16 07:24:28;;;;;;;4.87;2.27;;;;;;;7.89;75.55;98587.08;1818324;78;25638;-62
2024/04/16 07:26:55;;;;;;;4.00;1.67;;;;;;;;;;1818212;78;25591;-62
2024/04/16 07:29:26;;;;;;;3.52;1.80;;;;;;;7.89;74.87;98587.86;1818260;78;32752;-62
2024/04/16 07:31:52;;;;;;;5.03;2.05;;;;;;;7.89;74.52;98595.93;1818120;78;28274;-62
2024/04/16 07:34:18;;;;;;;4.97;1.62;;;;;;;7.85;74.09;98601.20;1817945;78;25481;-59
2024/04/16 07:36:44;;;;;;;3.20;1.85;;;;;;;7.82;73.56;98604.55;1818145;78;25624;-61
2024/04/16 07:39:12;;;;;;;26.90;18.80;;;;;;;7.77;72.41;98612.05;1818188;78;25535;-56
2024/04/16 07:41:39;;;;;;;7.60;6.10;;;;;;;7.71;70.26;98614.70;1818284;78;25402;-59
2024/04/16 07:44:05;;;;;;;4.55;1.90;;;;;;;7.66;69.68;98629.14;1823003;77;28094;-60
2024/04/16 07:46:33;;;;;;;4.33;2.08;;;;;;;7.68;68.62;98626.94;1829981;78;25544;-60
2024/04/16 07:49:01;;;;;;;2.47;2.17;;;;;;;7.69;69.20;98631.18;1830158;78;25546;-62
2024/04/16 07:51:28;;;;;;;4.65;2.00;;;;;;;7.69;68.30;98636.56;1830045;78;25526;-61
2024/04/16 07:53:56;;;;;;;1.87;1.62;;;;;;;7.67;70.07;98634.77;1830170;78;25622;-62
2024/04/16 07:56:22;;;;;;;4.92;1.70;;;;;;;7.70;69.43;98639.50;1830223;77;29639;-61
2024/04/16 07:58:48;;;;;;;5.95;2.02;;;;;;;7.70;68.98;98639.50;1829911;78;25607;-61
2024/04/16 08:01:15;;;;;;;3.80;2.15;;;;;;;7.69;69.74;98643.29;1830082;78;29594;-60
2024/04/16 08:03:42;;;;;;;6.25;2.47;;;;;;;7.71;69.00;98641.05;1829986;78;25638;-61
2024/04/16 08:06:11;;;;;;;3.62;1.92;;;;;;;7.70;69.23;98634.11;1830120;78;25383;-61
2024/04/16 08:08:37;;;;;;;4.42;2.08;;;;;;;7.69;69.11;98631.75;1830134;77;27450;-62
2024/04/16 08:11:13;;;;;;;5.10;2.40;;;;;;;7.71;69.46;98632.98;1830035;78;25599;-60
2024/04/16 08:13:41;;;;;;;3.62;2.00;;;;;;;7.71;68.88;98611.45;1830211;78;25531;-60
2024/04/16 08:16:09;;;;;;;4.50;2.30;;;;;;;7.80;69.24;98608.13;1830098;78;26324;-59
2024/04/16 08:18:37;;;;;;;3.70;1.98;;;;;;;7.94;69.06;98585.52;1830058;78;25542;-61
2024/04/16 08:21:04;;;;;;;3.83;2.15;;;;;;;8.23;68.09;98600.16;1830015;78;27521;-61
2024/04/16 08:23:33;;;;;;;7.90;4.45;;;;;;;8.47;65.63;98620.77;1830044;78;25533;-58
2024/04/16 08:26:05;;;;;;;10.20;5.92;;;;;;;8.63;67.38;98607.41;1830184;78;25538;-59
2024/04/16 08:28:35;;;;;;;3.83;2.22;;;;;;;8.78;67.48;98611.59;1830270;78;25610;-59
2024/04/16 08:31:05;;;;;;;3.45;1.60;;;;;;;8.91;66.85;98611.57;1830311;77;25525;-59
2024/04/16 08:33:31;;;;;;;3.15;2.15;;;;;;;8.91;65.54;98613.70;1830288;78;27503;-59
2024/04/16 08:35:58;;;;;;;3.87;2.10;;;;;;;8.92;65.22;98609.88;1830173;78;25619;-58
2024/04/16 08:38:26;;;;;;;1.98;1.70;;;;;;;8.89;62.92;98632.70;1830156;78;25430;-57
2024/04/16 08:40:52;;;;;;;2.52;1.52;;;;;;;8.81;64.35;98638.41;1830107;78;25836;-59
2024/04/16 08:43:29;;;;;;;3.45;1.72;;;;;;;8.78;63.18;98636.39;1830288;77;25788;-60
2024/04/16 08:45:59;;;;;;;3.87;1.72;;;;;;;8.73;63.23;98640.09;1830316;78;27730;-59
2024/04/16 08:48:30;;;;;;;7.75;1.90;;;;;;;8.73;63.70;98660.88;1830185;77;25724;-63
2024/04/16 08:51:00;;;;;;;5.78;2.05;;;;;;;8.69;62.54;98661.33;1830216;78;25587;-59
2024/04/16 08:53:30;;;;;;;5.00;1.50;;;;;;;8.66;62.76;98656.03;1830156;78;25580;-59
2024/04/16 08:55:59;;;;;;;3.80;1.92;;;;;;;8.60;62.05;98679.73;1830202;77;25346;-59
2024/04/16 08:58:26;;;;;;;6.25;2.10;;;;;;;8.59;62.46;98702.41;1830223;77;27525;-59
2024/04/16 09:00:57;;;;;;;4.30;1.72;;;;;;;8.51;60.09;98714.09;1830069;78;25362;-59
2024/04/16 09:03:26;;;;;;;3.65;1.80;;;;;;;8.40;60.75;98708.86;1830203;78;25503;-59
2024/04/16 09:05:52;;;;;;;1.80;1.57;;;;;;;8.33;60.21;98713.44;1830324;78;26094;-57
2024/04/16 09:08:18;;;;;;;19.80;14.93;;;;;;;8.27;59.82;98718.02;1830269;78;25539;-56
2024/04/16 09:10:45;;;;;;;26.93;19.98;;;;;;;8.25;60.47;98716.22;1830207;78;27508;-56
2024/04/16 09:13:12;;;;;;;4.50;1.80;;;;;;;8.26;62.03;98723.16;1830159;78;25558;-65
2024/04/16 09:15:40;;;;;;;8.50;1.87;;;;;;;8.28;61.66;98733.85;1830201;78;25507;-64
2024/04/16 09:18:07;;;;;;;3.67;1.80;;;;;;;8.29;61.44;98752.14;1830174;78;26151;-64
2024/04/16 09:20:34;;;;;;;4.85;2.02;;;;;;;8.31;61.27;98753.40;1830276;77;25472;-60
2024/04/16 09:23:01;;;;;;;6.33;1.95;;;;;;;8.28;61.19;98754.62;1830064;77;27322;-61
2024/04/16 09:25:28;;;;;;;2.55;1.70;;;;;;;8.23;59.75;98761.77;1829914;78;25646;-61
2024/04/16 09:27:57;;;;;;;4.78;1.70;;;;;;;8.19;60.34;98758.17;1830247;77;25374;-61
2024/04/16 09:30:24;;;;;;;1.85;1.65;;;;;;;8.19;59.79;98757.39;1830438;78;25456;-60
2024/04/16 09:33:03;;;;;;;2.92;1.80;;;;;;;8.17;59.62;98769.03;1830284;77;25611;-61
2024/04/16 09:35:32;;;;;;;3.25;1.60;;;;;;;8.15;58.59;98767.23;1830205;78;27477;-61
2024/04/16 09:38:09;;;;;;;4.08;1.57;;;;;;;8.13;60.03;98768.13;1830204;77;33299;-61
2024/04/16 09:40:36;;;;;;;4.25;1.90;;;;;;;8.14;60.17;98773.19;1830220;78;25500;-57
2024/04/16 09:43:05;;;;;;;5.83;1.90;;;;;;;8.15;59.77;98772.05;1830123;78;25549;-57
2024/04/16 09:45:33;;;;;;;3.15;1.90;;;;;;;8.17;60.04;98776.58;1820297;77;25832;-57
2024/04/16 09:47:59;;;;;;;5.10;1.90;;;;;;;8.21;59.87;98793.64;1816967;78;27518;-55
2024/04/16 09:50:27;;;;;;;3.65;2.02;;;;;;;8.22;57.78;98775.03;1817815;78;25578;-56
2024/04/16 09:52:56;;;;;;;3.83;1.82;;;;;;;8.23;58.72;98765.81;1818419;78;25377;-53
2024/04/16 09:55:25;;;;;;;4.15;1.30;;;;;;;8.33;57.83;98766.54;1818531;78;25586;-57
2024/04/16 09:57:53;;;;;;;3.65;1.77;;;;;;;8.43;59.40;98768.05;1818676;78;25542;-53
2024/04/16 10:00:21;;;;;;;3.58;1.80;;;;;;;8.62;59.71;98759.48;1818316;78;28088;-55
2024/04/16 10:02:48;;;;;;;3.83;2.15;;;;;;;8.77;59.77;98735.36;1818276;78;25800;-56
2024/04/16 10:05:16;;;;;;;3.80;2.10;;;;;;;8.96;57.54;98761.00;1818391;78;25446;-56
2024/04/16 10:07:46;;;;;;;3.77;2.40;;;;;;;9.05;58.38;98762.25;1818345;78;25524;-53
2024/04/16 10:10:15;;;;;;;7.80;2.60;;;;;;;9.18;58.67;98762.48;1818461;78;25525;-53
2024/04/16 10:12:43;;;;;;;4.85;2.40;;;;;;;9.25;58.13;98743.05;1818416;78;28061;-53
2024/04/16 10:15:14;;;;;;;4.58;2.58;;;;;;;9.26;57.77;98749.45;1818279;78;25441;-55
2024/04/16 10:17:53;;;;;;;5.58;2.47;;;;;;;9.26;57.06;98754.85;1792936;78;25499;-56
2024/04/16 10:20:23;;;;;;;6.55;2.37;;;;;;;9.24;57.56;98753.03;1818074;78;25484;-57
2024/04/16 10:22:58;;;;;;;6.22;2.35;;;;;;;9.24;57.54;98742.23;1818148;78;25450;-57
2024/04/16 10:25:31;;;;;;;3.83;2.98;;;;;;;9.27;57.99;98743.48;1818347;78;28014;-54
2024/04/16 10:28:05;;;;;;;3.20;2.50;;;;;;;9.34;56.97;98751.80;1818227;78;25883;-54
2024/04/16 10:30:35;;;;;;;6.72;2.70;;;;;;;9.29;57.05;98746.62;1818267;78;25579;-57
2024/04/16 10:33:04;;;;;;;4.30;2.30;;;;;;;9.27;57.68;98750.23;1818384;78;25466;-57
2024/04/16 10:35:34;;;;;;;9.23;2.98;;;;;;;9.30;57.82;98764.41;1818473;78;25628;-58
2024/04/16 10:38:01;;;;;;;5.05;2.67;;;;;;;9.21;56.85;98767.76;1792733;78;27101;-57
2024/04/16 10:40:31;;;;;;;7.80;2.92;;;;;;;9.12;57.74;98766.52;1818268;78;25568;-59
2024/04/16 10:43:00;;;;;;;;;;;;;;;9.04;57.87;98761.47;1821067;78;25192;-57
2024/04/16 10:45:28;;;;;;;33.95;26.25;;;;;;;9.04;56.68;98760.66;1825336;77;25497;-52
2024/04/16 10:47:58;;;;;;;4.22;2.50;;;;;;;9.05;57.73;98758.20;1830323;77;25470;-64
2024/04/16 10:50:24;;;;;;;3.85;2.25;;;;;;;9.16;58.19;98760.13;1830244;77;27514;-64
2024/04/16 10:52:52;;;;;;;2.87;2.30;;;;;;;9.30;57.45;98759.00;1830070;77;25382;-64
2024/04/16 10:55:22;;;;;;;4.05;1.87;;;;;;;9.39;56.79;98749.44;1830194;78;25515;-64
2024/04/16 10:57:50;;;;;;;4.62;1.72;;;;;;;9.55;56.77;98765.16;1830243;78;26012;-64
2024/04/16 11:00:17;;;;;;;2.10;1.40;;;;;;;9.64;55.73;98735.36;1830198;78;25449;-64
2024/04/16 11:02:45;;;;;;;2.98;1.60;;;;;;;9.69;53.27;98739.17;1830181;77;28049;-64
2024/04/16 11:05:14;;;;;;;3.83;1.37;;;;;;;9.76;53.14;98758.86;1830025;78;25585;-64
2024/04/16 11:07:40;;;;;;;5.53;2.02;;;;;;;9.81;53.69;98749.17;1830251;77;25514;-63
2024/04/16 11:10:07;;;;;;;4.00;1.82;;;;;;;9.85;53.97;98727.87;1830125;78;25601;-63
2024/04/16 11:12:35;;;;;;;4.87;1.60;;;;;;;9.94;52.99;98738.53;1830186;78;25544;-62
2024/04/16 11:15:03;;;;;;;2.90;1.60;;;;;;;9.94;52.47;98755.31;1800162;78;27400;-62
2024/04/16 11:17:30;;;;;;;4.72;1.47;;;;;;;9.93;52.39;98751.02;1830055;78;25542;-61
2024/04/16 11:19:57;;;;;;;3.33;1.60;;;;;;;9.90;52.54;98734.95;1830157;78;25587;-63
2024/04/16 11:22:25;;;;;;;5.12;1.95;;;;;;;9.89;53.13;98742.28;1800069;78;27642;-62
2024/04/16 11:24:52;;;;;;;3.33;1.52;;;;;;;9.95;53.22;98749.56;1830179;77;25588;-62
2024/04/16 11:27:19;;;;;;;2.42;1.35;;;;;;;10.07;51.98;98764.95;1830147;77;27534;-62
2024/04/16 11:29:49;;;;;;;3.08;1.40;;;;;;;10.12;52.45;98756.61;1830062;77;25675;-59
2024/04/16 11:32:19;;;;;;;6.03;3.65;;;;;;;10.15;52.56;98749.17;1830166;78;25434;-58
2024/04/16 11:34:47;;;;;;;10.90;7.08;;;;;;;10.28;53.49;98743.14;1830164;78;26015;-57
2024/04/16 11:37:16;;;;;;;3.58;2.17;;;;;;;10.51;54.12;98735.87;1830199;78;25524;-60